createdAt,value
2018-09-16T00:00:56.883Z,12.14
2018-09-16T00:03:25.612Z,12.12
2018-09-16T00:05:54.090Z,12.06
2018-09-16T00:08:22.529Z,12.05
2018-09-16T00:10:51.025Z,12.05
2018-09-16T00:13:19.541Z,12.02
2018-09-16T00:15:48.179Z,12.03
2018-09-16T00:18:16.639Z,12.04
2018-09-16T00:20:45.177Z,11.98
2018-09-16T00:23:13.626Z,11.88
2018-09-16T00:25:42.161Z,11.86
2018-09-16T00:28:10.589Z,11.82
2018-09-16T00:30:39.973Z,11.73
2018-09-16T00:33:08.485Z,11.77
2018-09-16T00:35:37.019Z,11.76
2018-09-16T00:38:05.597Z,11.71
2018-09-16T00:40:34.026Z,11.70
2018-09-16T00:43:02.513Z,11.68
2018-09-16T00:45:31.073Z,11.63
2018-09-16T00:47:59.762Z,11.58
2018-09-16T00:50:28.245Z,11.53
2018-09-16T00:52:56.771Z,11.49
2018-09-16T00:55:25.227Z,11.49
2018-09-16T00:57:53.713Z,11.51
2018-09-16T01:00:22.351Z,11.48
2018-09-16T01:02:50.937Z,11.42
2018-09-16T01:05:19.441Z,11.42
2018-09-16T01:07:47.862Z,11.42
2018-09-16T01:10:16.361Z,11.41
2018-09-16T01:12:44.814Z,11.38
2018-09-16T01:15:13.277Z,11.38
2018-09-16T01:17:41.870Z,11.33
2018-09-16T01:20:10.315Z,11.26
2018-09-16T01:22:38.858Z,11.27
2018-09-16T01:25:07.373Z,11.27
2018-09-16T01:27:35.833Z,11.24
2018-09-16T01:30:04.640Z,11.22
2018-09-16T01:32:33.044Z,11.22
2018-09-16T01:35:01.435Z,11.19
2018-09-16T01:37:35.047Z,11.16
2018-09-16T01:40:03.551Z,11.09
2018-09-16T01:42:32.195Z,11.10
2018-09-16T01:45:00.708Z,11.15
2018-09-16T01:47:29.129Z,11.12
2018-09-16T01:49:57.717Z,11.08
2018-09-16T01:52:26.346Z,11.11
2018-09-16T01:54:54.740Z,11.10
2018-09-16T01:57:23.241Z,11.06
2018-09-16T01:59:51.750Z,11.04
2018-09-16T02:02:20.206Z,11.04
2018-09-16T02:04:51.387Z,11.00
2018-09-16T02:07:20.205Z,10.90
2018-09-16T02:09:48.625Z,10.92
2018-09-16T02:12:17.084Z,10.91
2018-09-16T02:14:45.778Z,10.99
2018-09-16T02:17:14.173Z,10.98
2018-09-16T02:19:42.629Z,10.94
2018-09-16T02:22:11.102Z,10.93
2018-09-16T02:24:39.581Z,10.87
2018-09-16T02:27:08.061Z,10.81
2018-09-16T02:29:36.542Z,10.75
2018-09-16T02:32:05.006Z,10.76
2018-09-16T02:34:33.501Z,10.80
2018-09-16T02:37:01.905Z,10.78
2018-09-16T02:39:30.366Z,10.78
2018-09-16T02:41:59.232Z,10.85
2018-09-16T02:44:27.697Z,10.84
2018-09-16T02:46:56.195Z,10.80
2018-09-16T02:49:26.853Z,10.79
2018-09-16T02:51:55.297Z,10.78
2018-09-16T02:54:23.793Z,10.77
2018-09-16T02:56:52.297Z,10.74
2018-09-16T02:59:20.767Z,10.73
2018-09-16T03:01:49.235Z,10.71
2018-09-16T03:04:17.749Z,10.66
2018-09-16T03:06:46.177Z,10.63
2018-09-16T03:09:14.577Z,10.64
2018-09-16T03:11:43.189Z,10.62
2018-09-16T03:14:11.717Z,10.62
2018-09-16T03:16:40.130Z,10.62
2018-09-16T03:19:08.618Z,10.62
2018-09-16T03:21:37.073Z,10.66
2018-09-16T03:24:05.590Z,10.65
2018-09-16T03:26:33.966Z,10.66
2018-09-16T03:29:02.445Z,10.64
2018-09-16T03:31:33.905Z,10.65
2018-09-16T03:34:02.377Z,10.74
2018-09-16T03:36:30.834Z,10.68
2018-09-16T03:38:59.686Z,10.62
2018-09-16T03:41:28.094Z,10.60
2018-09-16T03:43:56.567Z,10.52
2018-09-16T03:46:25.213Z,10.47
2018-09-16T03:48:53.590Z,10.46
2018-09-16T03:51:22.057Z,10.42
2018-09-16T03:53:50.597Z,10.52
2018-09-16T03:56:19.019Z,10.49
2018-09-16T03:58:47.470Z,10.53
2018-09-16T04:01:15.866Z,10.51
2018-09-16T04:03:44.325Z,10.49
2018-09-16T04:06:12.761Z,10.44
2018-09-16T04:08:41.194Z,10.45
2018-09-16T04:11:09.719Z,10.38
2018-09-16T04:13:38.170Z,10.41
2018-09-16T04:16:06.712Z,10.44
2018-09-16T04:18:35.150Z,10.49
2018-09-16T04:21:03.687Z,10.49
2018-09-16T04:23:43.220Z,10.43
2018-09-16T04:26:11.666Z,10.37
2018-09-16T04:28:40.042Z,10.31
2018-09-16T04:31:08.518Z,10.26
2018-09-16T04:33:37.135Z,10.23
2018-09-16T04:36:05.725Z,10.19
2018-09-16T04:38:34.125Z,10.17
2018-09-16T04:41:02.526Z,10.15
2018-09-16T04:43:31.003Z,10.13
2018-09-16T04:45:59.904Z,10.13
2018-09-16T04:48:28.426Z,10.18
2018-09-16T04:50:57.104Z,10.16
2018-09-16T04:53:25.645Z,10.16
2018-09-16T04:55:54.330Z,10.19
2018-09-16T04:58:22.730Z,10.21
2018-09-16T05:00:51.271Z,10.18
2018-09-16T05:03:19.702Z,10.20
2018-09-16T05:05:48.154Z,10.22
2018-09-16T05:08:16.650Z,10.26
2018-09-16T05:10:45.101Z,10.34
2018-09-16T05:13:13.533Z,10.31
2018-09-16T05:15:41.981Z,10.33
2018-09-16T05:18:10.472Z,10.39
2018-09-16T05:20:38.929Z,10.36
2018-09-16T05:23:07.373Z,10.39
2018-09-16T05:25:35.798Z,10.42
2018-09-16T05:28:04.210Z,10.47
2018-09-16T05:30:32.678Z,10.56
2018-09-16T05:33:01.160Z,10.58
2018-09-16T05:35:29.617Z,10.62
2018-09-16T05:37:58.533Z,10.65
2018-09-16T05:40:27.253Z,10.70
2018-09-16T05:42:55.698Z,10.81
2018-09-16T05:45:24.161Z,10.86
2018-09-16T05:47:52.641Z,10.97
2018-09-16T05:50:21.134Z,11.05
2018-09-16T05:52:49.719Z,11.14
2018-09-16T05:55:18.090Z,11.25
2018-09-16T05:57:46.581Z,11.35
2018-09-16T06:00:19.180Z,11.43
2018-09-16T06:02:48.333Z,11.52
2018-09-16T06:05:16.847Z,11.64
2018-09-16T06:07:45.388Z,11.71
2018-09-16T06:10:13.812Z,11.78
2018-09-16T06:12:42.219Z,11.87
2018-09-16T06:15:10.721Z,11.95
2018-09-16T06:17:39.125Z,12.02
2018-09-16T06:20:07.674Z,12.05
2018-09-16T06:22:36.140Z,12.13
2018-09-16T06:25:04.618Z,12.19
2018-09-16T06:27:33.054Z,12.26
2018-09-16T06:30:01.570Z,12.32
2018-09-16T06:32:30.050Z,12.48
2018-09-16T06:34:59.101Z,12.52
2018-09-16T06:37:28.046Z,12.61
2018-09-16T06:39:56.532Z,12.68
2018-09-16T06:42:25.054Z,12.72
2018-09-16T06:44:53.545Z,12.79
2018-09-16T06:47:22.046Z,12.93
2018-09-16T06:49:50.503Z,13.03
2018-09-16T06:52:18.914Z,13.15
2018-09-16T06:54:47.474Z,13.10
2018-09-16T06:57:15.990Z,13.19
2018-09-16T06:59:44.566Z,13.33
2018-09-16T07:02:13.050Z,13.44
2018-09-16T07:04:41.539Z,13.58
2018-09-16T07:07:10.002Z,13.73
2018-09-16T07:09:38.501Z,13.85
2018-09-16T07:12:07.034Z,13.93
2018-09-16T07:14:35.508Z,13.95
2018-09-16T07:17:03.944Z,14.03
2018-09-16T07:19:32.438Z,14.20
2018-09-16T07:22:00.905Z,14.26
2018-09-16T07:24:29.446Z,14.44
2018-09-16T07:26:58.033Z,14.50
2018-09-16T07:29:26.614Z,14.65
2018-09-16T07:31:55.034Z,14.65
2018-09-16T07:34:23.526Z,14.81
2018-09-16T07:36:51.995Z,14.96
2018-09-16T07:39:20.473Z,15.13
2018-09-16T07:41:48.949Z,15.33
2018-09-16T07:44:17.520Z,15.47
2018-09-16T07:46:46.005Z,15.54
2018-09-16T07:49:14.477Z,15.70
2018-09-16T07:51:42.898Z,15.66
2018-09-16T07:54:11.342Z,15.81
2018-09-16T07:56:39.873Z,16.06
2018-09-16T07:59:08.341Z,16.30
2018-09-16T08:01:36.813Z,16.39
2018-09-16T08:04:05.237Z,16.46
2018-09-16T08:06:33.673Z,16.90
2018-09-16T08:09:02.129Z,17.24
2018-09-16T08:11:30.541Z,17.43
2018-09-16T08:13:59.389Z,17.55
2018-09-16T08:16:28.061Z,17.68
2018-09-16T08:18:56.550Z,17.70
2018-09-16T08:21:25.170Z,17.80
2018-09-16T08:23:53.610Z,17.88
2018-09-16T08:26:22.042Z,18.22
2018-09-16T08:28:50.493Z,18.25
2018-09-16T08:31:18.930Z,18.43
2018-09-16T08:33:47.557Z,18.61
2018-09-16T08:36:16.265Z,18.72
2018-09-16T08:38:44.758Z,19.15
2018-09-16T08:41:13.293Z,19.34
2018-09-16T08:43:41.701Z,19.72
2018-09-16T08:46:10.214Z,19.97
2018-09-16T08:48:38.862Z,19.99
2018-09-16T08:51:08.178Z,19.75
2018-09-16T08:53:36.855Z,19.66
2018-09-16T08:56:05.423Z,19.56
2018-09-16T08:58:33.935Z,19.61
2018-09-16T09:01:02.334Z,19.79
2018-09-16T09:03:30.781Z,19.98
2018-09-16T09:05:59.878Z,20.07
2018-09-16T09:08:28.265Z,20.31
2018-09-16T09:10:57.018Z,20.48
2018-09-16T09:13:25.609Z,20.72
2018-09-16T09:15:54.044Z,20.73
2018-09-16T09:18:22.489Z,20.74
2018-09-16T09:20:50.950Z,20.91
2018-09-16T09:23:19.654Z,21.13
2018-09-16T09:25:48.146Z,21.29
2018-09-16T09:28:16.734Z,21.67
2018-09-16T09:30:45.274Z,21.57
2018-09-16T09:33:13.718Z,21.93
2018-09-16T09:35:42.208Z,22.39
2018-09-16T09:38:10.734Z,23.09
2018-09-16T09:40:39.315Z,23.94
2018-09-16T09:43:07.925Z,24.27
2018-09-16T09:45:36.429Z,25.12
2018-09-16T09:48:04.913Z,25.44
2018-09-16T09:50:33.371Z,25.45
2018-09-16T09:53:01.926Z,25.91
2018-09-16T09:55:30.368Z,26.08
2018-09-16T09:57:58.937Z,26.11
2018-09-16T10:00:32.774Z,26.65
2018-09-16T10:03:01.239Z,26.71
2018-09-16T10:05:29.702Z,26.62
2018-09-16T10:07:58.550Z,26.93
2018-09-16T10:10:26.994Z,27.48
2018-09-16T10:12:55.685Z,28.03
2018-09-16T10:15:24.133Z,28.36
2018-09-16T10:17:52.627Z,28.23
2018-09-16T10:20:21.164Z,28.09
2018-09-16T10:22:49.594Z,29.13
2018-09-16T10:25:18.057Z,29.36
2018-09-16T10:27:46.670Z,29.31
2018-09-16T10:30:15.705Z,29.30
2018-09-16T10:32:44.182Z,30.02
2018-09-16T10:35:12.570Z,29.92
2018-09-16T10:37:41.026Z,30.87
2018-09-16T10:40:09.457Z,30.57
2018-09-16T10:42:37.949Z,30.41
2018-09-16T10:45:06.411Z,30.42
2018-09-16T10:47:34.917Z,30.54
2018-09-16T10:50:03.452Z,31.31
2018-09-16T10:52:31.898Z,30.76
2018-09-16T10:55:00.550Z,31.18
2018-09-16T10:57:29.217Z,31.45
2018-09-16T10:59:57.754Z,32.22
2018-09-16T11:02:26.394Z,33.00
2018-09-16T11:04:55.101Z,33.29
2018-09-16T11:07:23.858Z,33.63
2018-09-16T11:09:52.271Z,34.18
2018-09-16T11:12:21.246Z,33.83
2018-09-16T11:14:49.913Z,34.08
2018-09-16T11:17:18.313Z,34.28
2018-09-16T11:19:46.882Z,34.68
2018-09-16T11:22:15.475Z,34.60
2018-09-16T11:24:44.021Z,35.21
2018-09-16T11:27:12.861Z,34.83
2018-09-16T11:29:41.393Z,35.24
2018-09-16T11:32:09.858Z,35.60
2018-09-16T11:34:38.389Z,36.34
2018-09-16T11:37:06.910Z,35.54
2018-09-16T11:39:35.428Z,37.11
2018-09-16T11:42:03.881Z,38.01
2018-09-16T11:44:32.353Z,37.42
2018-09-16T11:47:00.843Z,37.15
2018-09-16T11:49:29.382Z,36.66
2018-09-16T11:51:58.157Z,37.08
2018-09-16T11:54:26.893Z,37.22
2018-09-16T11:56:55.306Z,36.76
2018-09-16T11:59:23.952Z,36.92
2018-09-16T12:01:52.458Z,36.17
2018-09-16T12:04:20.977Z,37.39
2018-09-16T12:06:49.547Z,37.52
2018-09-16T12:09:18.066Z,37.59
2018-09-16T12:11:46.485Z,38.88
2018-09-16T12:14:15.030Z,39.98
2018-09-16T12:16:43.493Z,40.13
2018-09-16T12:19:12.004Z,39.94
2018-09-16T12:21:40.380Z,39.70
2018-09-16T12:24:08.910Z,39.40
2018-09-16T12:26:37.327Z,39.38
2018-09-16T12:29:05.737Z,40.10
2018-09-16T12:31:34.205Z,40.37
2018-09-16T12:34:02.750Z,40.10
2018-09-16T12:36:31.201Z,40.27
2018-09-16T12:38:59.841Z,39.84
2018-09-16T12:41:28.350Z,40.81
2018-09-16T12:43:56.809Z,41.46
2018-09-16T12:46:25.364Z,41.52
2018-09-16T12:48:53.776Z,41.50
2018-09-16T12:51:22.280Z,40.23
2018-09-16T12:53:50.761Z,41.28
2018-09-16T12:56:19.309Z,42.50
2018-09-16T12:58:47.821Z,43.01
2018-09-16T13:01:16.341Z,43.56
2018-09-16T13:03:45.042Z,43.96
2018-09-16T13:06:13.561Z,43.12
2018-09-16T13:08:42.313Z,40.87
2018-09-16T13:11:10.910Z,40.06
2018-09-16T13:13:39.679Z,40.51
2018-09-16T13:16:08.405Z,39.63
2018-09-16T13:18:36.913Z,39.16
2018-09-16T13:21:05.842Z,39.23
2018-09-16T13:23:34.279Z,39.02
2018-09-16T13:26:03.016Z,38.99
2018-09-16T13:28:31.521Z,38.77
2018-09-16T13:31:00.305Z,38.07
2018-09-16T13:33:28.798Z,37.91
2018-09-16T13:35:57.325Z,38.25
2018-09-16T13:38:26.026Z,39.26
2018-09-16T13:40:54.454Z,39.47
2018-09-16T13:43:23.009Z,39.84
2018-09-16T13:45:51.502Z,38.66
2018-09-16T13:48:19.985Z,37.86
2018-09-16T13:50:48.502Z,38.41
2018-09-16T13:53:16.966Z,39.59
2018-09-16T13:55:45.486Z,38.79
2018-09-16T13:58:13.949Z,39.72
2018-09-16T14:00:42.476Z,40.17
2018-09-16T14:03:11.009Z,40.54
2018-09-16T14:05:39.668Z,40.28
2018-09-16T14:08:08.141Z,40.00
2018-09-16T14:10:36.681Z,39.67
2018-09-16T14:13:05.117Z,39.35
2018-09-16T14:15:33.659Z,38.90
2018-09-16T14:18:02.081Z,39.48
2018-09-16T14:20:30.562Z,38.23
2018-09-16T14:22:59.161Z,38.35
2018-09-16T14:25:27.903Z,38.27
2018-09-16T14:27:56.395Z,36.36
2018-09-16T14:30:24.927Z,34.96
2018-09-16T14:32:53.384Z,34.31
2018-09-16T14:35:21.918Z,33.74
2018-09-16T14:37:50.473Z,32.97
2018-09-16T14:40:18.917Z,32.71
2018-09-16T14:42:47.550Z,32.87
2018-09-16T14:45:15.961Z,33.16
2018-09-16T14:47:44.547Z,34.05
2018-09-16T14:50:13.023Z,33.79
2018-09-16T14:52:41.666Z,33.94
2018-09-16T14:55:10.218Z,34.18
2018-09-16T14:57:38.818Z,33.96
2018-09-16T15:00:07.269Z,33.35
2018-09-16T15:02:35.803Z,33.15
2018-09-16T15:05:04.389Z,33.43
2018-09-16T15:07:32.851Z,34.40
2018-09-16T15:10:01.510Z,35.62
2018-09-16T15:12:30.066Z,36.93
2018-09-16T15:14:58.894Z,37.33
2018-09-16T15:17:27.429Z,37.19
2018-09-16T15:19:57.086Z,35.91
2018-09-16T15:22:26.553Z,34.96
2018-09-16T15:24:55.070Z,33.53
2018-09-16T15:27:23.567Z,32.98
2018-09-16T15:29:52.326Z,33.22
2018-09-16T15:32:22.415Z,33.77
2018-09-16T15:34:50.854Z,33.95
2018-09-16T15:37:19.433Z,35.77
2018-09-16T15:39:49.142Z,35.69
2018-09-16T15:42:17.812Z,36.62
2018-09-16T15:44:46.334Z,38.01
2018-09-16T15:47:14.782Z,37.72
2018-09-16T15:49:43.697Z,37.46
2018-09-16T15:52:12.382Z,38.44
2018-09-16T15:54:40.982Z,38.77
2018-09-16T15:57:09.564Z,39.17
2018-09-16T15:59:38.262Z,38.22
2018-09-16T16:02:06.757Z,39.57
2018-09-16T16:04:35.334Z,40.18
2018-09-16T16:07:03.786Z,39.34
2018-09-16T16:09:32.501Z,39.37
2018-09-16T16:12:01.955Z,38.91
2018-09-16T16:14:30.574Z,39.52
2018-09-16T16:16:59.291Z,39.51
2018-09-16T16:19:27.962Z,38.20
2018-09-16T16:21:56.617Z,36.65
2018-09-16T16:24:25.123Z,35.49
2018-09-16T16:26:53.762Z,34.14
2018-09-16T16:29:22.425Z,33.65
2018-09-16T16:31:50.846Z,33.99
2018-09-16T16:34:19.594Z,35.03
2018-09-16T16:36:48.009Z,34.90
2018-09-16T16:39:16.594Z,33.91
2018-09-16T16:41:45.169Z,33.55
2018-09-16T16:44:13.814Z,33.21
2018-09-16T16:46:42.761Z,33.18
2018-09-16T16:49:11.233Z,32.61
2018-09-16T16:51:39.785Z,31.57
2018-09-16T16:54:08.409Z,30.54
2018-09-16T16:56:37.037Z,29.75
2018-09-16T16:59:05.601Z,29.03
2018-09-16T17:01:34.086Z,28.55
2018-09-16T17:04:02.714Z,27.67
2018-09-16T17:06:31.210Z,27.34
2018-09-16T17:09:00.078Z,26.96
2018-09-16T17:11:28.856Z,26.67
2018-09-16T17:13:57.349Z,26.34
2018-09-16T17:16:25.806Z,26.16
2018-09-16T17:18:54.516Z,26.07
2018-09-16T17:21:22.927Z,25.81
2018-09-16T17:23:51.570Z,25.54
2018-09-16T17:26:20.137Z,25.27
2018-09-16T17:28:48.725Z,24.93
2018-09-16T17:31:17.133Z,24.68
2018-09-16T17:33:45.741Z,24.45
2018-09-16T17:36:14.342Z,24.26
2018-09-16T17:38:42.901Z,24.08
2018-09-16T17:41:11.309Z,23.88
2018-09-16T17:43:39.845Z,23.63
2018-09-16T17:46:08.269Z,23.41
2018-09-16T17:48:36.737Z,23.17
2018-09-16T17:51:05.342Z,22.98
2018-09-16T17:53:33.785Z,22.82
2018-09-16T17:56:02.397Z,22.70
2018-09-16T17:58:30.902Z,22.52
2018-09-16T18:00:59.774Z,22.42
2018-09-16T18:03:28.379Z,22.28
2018-09-16T18:05:57.018Z,22.20
2018-09-16T18:08:30.830Z,22.10
2018-09-16T18:10:59.277Z,22.01
2018-09-16T18:13:27.849Z,21.91
2018-09-16T18:15:56.351Z,21.90
2018-09-16T18:18:24.857Z,21.85
2018-09-16T18:20:53.383Z,21.78
2018-09-16T18:23:21.961Z,21.73
2018-09-16T18:25:50.462Z,21.65
2018-09-16T18:28:18.964Z,21.63
2018-09-16T18:30:47.395Z,21.60
2018-09-16T18:33:15.887Z,21.59
2018-09-16T18:35:44.412Z,21.53
2018-09-16T18:38:12.913Z,21.43
2018-09-16T18:40:41.446Z,21.36
2018-09-16T18:43:09.924Z,21.29
2018-09-16T18:45:38.646Z,21.24
2018-09-16T18:48:07.371Z,21.18
2018-09-16T18:50:36.055Z,21.14
2018-09-16T18:53:04.537Z,21.03
2018-09-16T18:55:32.950Z,20.94
2018-09-16T18:58:01.497Z,20.83
2018-09-16T19:00:30.026Z,20.78
2018-09-16T19:02:58.833Z,20.71
2018-09-16T19:05:27.389Z,20.64
2018-09-16T19:07:55.848Z,20.60
2018-09-16T19:10:24.318Z,20.52
2018-09-16T19:12:52.784Z,20.43
2018-09-16T19:15:21.222Z,20.42
2018-09-16T19:17:49.705Z,20.58
2018-09-16T19:20:18.130Z,20.61
2018-09-16T19:22:46.637Z,20.58
2018-09-16T19:25:15.117Z,20.50
2018-09-16T19:27:43.612Z,20.53
2018-09-16T19:30:12.115Z,20.47
2018-09-16T19:32:40.561Z,20.44
2018-09-16T19:35:09.038Z,20.44
2018-09-16T19:37:37.513Z,20.38
2018-09-16T19:40:06.077Z,20.41
2018-09-16T19:42:34.534Z,20.37
2018-09-16T19:45:02.961Z,20.39
2018-09-16T19:47:31.441Z,20.30
2018-09-16T19:50:00.126Z,20.23
2018-09-16T19:52:28.715Z,20.08
2018-09-16T19:54:57.173Z,19.98
2018-09-16T19:57:25.642Z,19.85
2018-09-16T19:59:54.163Z,19.75
2018-09-16T20:02:22.654Z,19.70
2018-09-16T20:04:51.282Z,19.69
2018-09-16T20:07:19.753Z,19.65
2018-09-16T20:09:48.170Z,19.55
2018-09-16T20:12:16.685Z,19.50
2018-09-16T20:14:45.085Z,19.44
2018-09-16T20:17:13.552Z,19.39
2018-09-16T20:19:41.997Z,19.31
2018-09-16T20:22:10.692Z,19.19
2018-09-16T20:24:39.278Z,19.14
2018-09-16T20:27:07.862Z,19.06
2018-09-16T20:29:36.357Z,18.99
2018-09-16T20:32:05.335Z,18.94
2018-09-16T20:34:33.801Z,18.91
2018-09-16T20:37:02.357Z,18.91
2018-09-16T20:39:30.897Z,18.91
2018-09-16T20:41:59.460Z,18.88
2018-09-16T20:44:27.954Z,18.83
2018-09-16T20:46:56.494Z,18.75
2018-09-16T20:49:24.904Z,18.70
2018-09-16T20:51:53.387Z,18.63
2018-09-16T20:54:22.049Z,18.62
2018-09-16T20:56:50.449Z,18.59
2018-09-16T20:59:18.967Z,18.49
2018-09-16T21:01:47.437Z,18.39
2018-09-16T21:04:15.938Z,18.26
2018-09-16T21:06:44.369Z,18.16
2018-09-16T21:09:13.751Z,18.07
2018-09-16T21:11:42.145Z,18.05
2018-09-16T21:14:10.649Z,18.04
2018-09-16T21:16:39.116Z,18.02
2018-09-16T21:19:07.646Z,17.99
2018-09-16T21:21:36.073Z,17.92
2018-09-16T21:24:04.643Z,17.81
2018-09-16T21:26:33.053Z,17.69
2018-09-16T21:29:01.473Z,17.61
2018-09-16T21:31:29.905Z,17.55
2018-09-16T21:33:58.564Z,17.47
2018-09-16T21:36:27.578Z,17.44
2018-09-16T21:38:56.086Z,17.44
2018-09-16T21:41:24.545Z,17.49
2018-09-16T21:43:53.103Z,17.40
2018-09-16T21:46:21.494Z,17.31
2018-09-16T21:48:49.911Z,17.26
2018-09-16T21:51:18.868Z,17.25
2018-09-16T21:53:47.543Z,17.25
2018-09-16T21:56:15.993Z,17.23
2018-09-16T21:58:44.838Z,17.20
2018-09-16T22:01:13.341Z,17.12
2018-09-16T22:03:41.805Z,17.13
2018-09-16T22:06:10.453Z,17.14
2018-09-16T22:08:38.918Z,17.12
2018-09-16T22:11:07.377Z,17.12
2018-09-16T22:13:35.881Z,17.04
2018-09-16T22:16:04.373Z,16.99
2018-09-16T22:18:32.898Z,16.95
2018-09-16T22:21:01.441Z,16.99
2018-09-16T22:23:29.862Z,16.82
2018-09-16T22:25:58.539Z,16.74
2018-09-16T22:28:27.050Z,16.73
2018-09-16T22:30:55.562Z,16.74
2018-09-16T22:33:24.206Z,16.69
2018-09-16T22:35:52.762Z,16.60
2018-09-16T22:38:21.176Z,16.50
2018-09-16T22:40:49.665Z,16.38
2018-09-16T22:43:18.329Z,16.26
2018-09-16T22:45:46.845Z,16.15
2018-09-16T22:48:15.289Z,16.08
2018-09-16T22:50:43.825Z,16.03
2018-09-16T22:53:12.273Z,16.01
2018-09-16T22:55:40.761Z,15.98
2018-09-16T22:58:09.218Z,16.04
2018-09-16T23:00:37.786Z,16.05
2018-09-16T23:03:06.263Z,16.00
2018-09-16T23:05:34.746Z,15.97
2018-09-16T23:08:03.290Z,15.93
2018-09-16T23:10:31.756Z,15.88
2018-09-16T23:13:00.434Z,15.88
2018-09-16T23:15:29.114Z,15.84
2018-09-16T23:17:57.657Z,15.81
2018-09-16T23:20:26.139Z,15.80
2018-09-16T23:22:54.565Z,15.81
2018-09-16T23:25:23.055Z,15.78
2018-09-16T23:27:51.541Z,15.73
2018-09-16T23:30:19.993Z,15.66
2018-09-16T23:32:48.507Z,15.53
2018-09-16T23:35:16.989Z,15.48
2018-09-16T23:37:45.517Z,15.38
2018-09-16T23:40:14.010Z,15.30
2018-09-16T23:42:42.529Z,15.25
2018-09-16T23:45:11.000Z,15.29
2018-09-16T23:47:39.486Z,15.28
2018-09-16T23:50:08.114Z,15.27
2018-09-16T23:52:37.535Z,15.24
2018-09-16T23:55:06.986Z,15.25
2018-09-16T23:57:35.441Z,15.27
